IBS16GG LEPA-LEMD
Flight info
| Callsign | IBS16GG |
|---|---|
| Flight time | 0h 58m |
| Altitude | 31000 |
| Route | EPAMA N733 PRADO |
| Aircraft | A320/M-SDE3FGHIRWY/LB1 |
Departure
| Time | 2026-05-05 06:36 |
|---|---|
| Airport | Palma de Mallorca Airport (LEPA) |
Arrival
| Time | 2026-05-05 07:34 |
|---|---|
| Airport | Adolfo Suárez Madrid–Barajas Airport (LEMD) |
| Time | Latitude | Longitude | Altitude | Speed | Heading |
|---|---|---|---|---|---|
| 2026-05-05 06:16 | 39.54650 | 2.73425 | 39 ft | 0 kts | 259° |
| 2026-05-05 06:27 | 39.54653 | 2.73441 | 38 ft | 4 kts | 262° |
| 2026-05-05 06:27 | 39.54665 | 2.73500 | 33 ft | 4 kts | 211° |
| 2026-05-05 06:27 | 39.54687 | 2.73504 | 35 ft | 4 kts | 152° |
| 2026-05-05 06:28 | 39.54702 | 2.73493 | 37 ft | 0 kts | 149° |
| 2026-05-05 06:30 | 39.54699 | 2.73495 | 37 ft | 3 kts | 149° |
| 2026-05-05 06:30 | 39.54625 | 2.73568 | 38 ft | 17 kts | 107° |
| 2026-05-05 06:30 | 39.54673 | 2.73701 | 38 ft | 16 kts | 59° |
| 2026-05-05 06:31 | 39.54731 | 2.73828 | 38 ft | 17 kts | 59° |
| 2026-05-05 06:31 | 39.54794 | 2.73955 | 38 ft | 17 kts | 57° |
| 2026-05-05 06:31 | 39.54883 | 2.73971 | 38 ft | 14 kts | 330° |
| 2026-05-05 06:31 | 39.54954 | 2.74009 | 38 ft | 12 kts | 37° |
| 2026-05-05 06:32 | 39.55036 | 2.73961 | 38 ft | 17 kts | 327° |
| 2026-05-05 06:32 | 39.55171 | 2.73854 | 36 ft | 27 kts | 329° |
| 2026-05-05 06:32 | 39.55336 | 2.73724 | 37 ft | 28 kts | 328° |
| 2026-05-05 06:32 | 39.55507 | 2.73588 | 38 ft | 29 kts | 329° |
| 2026-05-05 06:33 | 39.55653 | 2.73513 | 38 ft | 19 kts | 27° |
| 2026-05-05 06:33 | 39.55728 | 2.73656 | 38 ft | 20 kts | 59° |
| 2026-05-05 06:33 | 39.55808 | 2.73825 | 38 ft | 23 kts | 59° |
| 2026-05-05 06:33 | 39.55896 | 2.74010 | 37 ft | 25 kts | 58° |
| 2026-05-05 06:34 | 39.55987 | 2.74204 | 37 ft | 23 kts | 59° |
| 2026-05-05 06:34 | 39.56044 | 2.74270 | 38 ft | 16 kts | 28° |
| 2026-05-05 06:34 | 39.56136 | 2.74328 | 38 ft | 14 kts | 26° |
| 2026-05-05 06:34 | 39.56224 | 2.74310 | 38 ft | 20 kts | 301° |
| 2026-05-05 06:35 | 39.56149 | 2.74101 | 38 ft | 22 kts | 238° |
| 2026-05-05 06:35 | 39.56055 | 2.73906 | 38 ft | 61 kts | 238° |
| 2026-05-05 06:35 | 39.55715 | 2.73184 | 38 ft | 123 kts | 239° |
| 2026-05-05 06:35 | 39.55188 | 2.72062 | 54 ft | 168 kts | 238° |
| 2026-05-05 06:36 | 39.54582 | 2.70737 | 707 ft | 168 kts | 237° |
| 2026-05-05 06:36 | 39.53961 | 2.69487 | 1452 ft | 169 kts | 236° |
| 2026-05-05 06:36 | 39.53275 | 2.68141 | 1848 ft | 190 kts | 235° |
| 2026-05-05 06:36 | 39.52502 | 2.66632 | 2300 ft | 207 kts | 235° |
| 2026-05-05 06:37 | 39.51699 | 2.65064 | 3140 ft | 209 kts | 235° |
| 2026-05-05 06:37 | 39.50892 | 2.63485 | 3975 ft | 212 kts | 236° |
| 2026-05-05 06:37 | 39.50074 | 2.61880 | 4760 ft | 216 kts | 236° |
| 2026-05-05 06:37 | 39.49241 | 2.60245 | 5515 ft | 219 kts | 236° |
| 2026-05-05 06:38 | 39.48393 | 2.58581 | 6267 ft | 222 kts | 236° |
| 2026-05-05 06:38 | 39.47538 | 2.56909 | 7033 ft | 223 kts | 236° |
| 2026-05-05 06:38 | 39.46678 | 2.55228 | 7810 ft | 225 kts | 236° |
| 2026-05-05 06:38 | 39.45813 | 2.53539 | 8609 ft | 226 kts | 236° |
| 2026-05-05 06:39 | 39.45116 | 2.51691 | 9167 ft | 241 kts | 259° |
| 2026-05-05 06:39 | 39.45315 | 2.49438 | 9506 ft | 269 kts | 286° |
| 2026-05-05 06:39 | 39.45923 | 2.47116 | 10042 ft | 281 kts | 284° |
| 2026-05-05 06:39 | 39.46476 | 2.44593 | 10343 ft | 303 kts | 282° |
| 2026-05-05 06:40 | 39.46977 | 2.41851 | 10724 ft | 319 kts | 279° |
| 2026-05-05 06:40 | 39.47420 | 2.39011 | 11434 ft | 324 kts | 278° |
| 2026-05-05 06:40 | 39.47824 | 2.36134 | 12237 ft | 325 kts | 277° |
| 2026-05-05 06:40 | 39.48206 | 2.33248 | 13045 ft | 327 kts | 277° |
| 2026-05-05 06:41 | 39.48580 | 2.30340 | 13835 ft | 328 kts | 276° |
| 2026-05-05 06:41 | 39.48954 | 2.27419 | 14527 ft | 330 kts | 276° |
| 2026-05-05 06:41 | 39.49330 | 2.24482 | 15222 ft | 331 kts | 276° |
| 2026-05-05 06:41 | 39.49709 | 2.21531 | 15925 ft | 332 kts | 276° |
| 2026-05-05 06:42 | 39.50090 | 2.18574 | 16619 ft | 334 kts | 276° |
| 2026-05-05 06:42 | 39.50477 | 2.15602 | 17309 ft | 335 kts | 276° |
| 2026-05-05 06:42 | 39.50866 | 2.12617 | 17989 ft | 337 kts | 276° |
| 2026-05-05 06:42 | 39.51258 | 2.09614 | 18603 ft | 339 kts | 276° |
| 2026-05-05 06:43 | 39.51651 | 2.06598 | 19156 ft | 341 kts | 276° |
| 2026-05-05 06:43 | 39.52046 | 2.03558 | 19711 ft | 343 kts | 276° |
| 2026-05-05 06:43 | 39.52436 | 2.00543 | 20261 ft | 345 kts | 276° |
| 2026-05-05 06:43 | 39.52833 | 1.97468 | 20793 ft | 347 kts | 275° |
| 2026-05-05 06:44 | 39.53232 | 1.94371 | 21324 ft | 349 kts | 275° |
| 2026-05-05 06:44 | 39.53632 | 1.91258 | 21842 ft | 352 kts | 275° |
| 2026-05-05 06:44 | 39.54032 | 1.88120 | 22368 ft | 354 kts | 275° |
| 2026-05-05 06:44 | 39.54431 | 1.84961 | 22872 ft | 356 kts | 275° |
| 2026-05-05 06:45 | 39.54833 | 1.81782 | 23381 ft | 358 kts | 275° |
| 2026-05-05 06:45 | 39.55238 | 1.78590 | 23823 ft | 360 kts | 275° |
| 2026-05-05 06:45 | 39.55645 | 1.75376 | 24244 ft | 362 kts | 275° |
| 2026-05-05 06:45 | 39.56054 | 1.72156 | 24683 ft | 363 kts | 275° |
| 2026-05-05 06:46 | 39.56464 | 1.68921 | 25110 ft | 364 kts | 275° |
| 2026-05-05 06:46 | 39.56875 | 1.65676 | 25526 ft | 365 kts | 275° |
| 2026-05-05 06:46 | 39.57285 | 1.62422 | 25939 ft | 366 kts | 274° |
| 2026-05-05 06:46 | 39.57693 | 1.59157 | 26349 ft | 368 kts | 274° |
| 2026-05-05 06:47 | 39.58100 | 1.55879 | 26751 ft | 369 kts | 274° |
| 2026-05-05 06:47 | 39.58505 | 1.52632 | 27143 ft | 370 kts | 274° |
| 2026-05-05 06:47 | 39.58917 | 1.49329 | 27539 ft | 372 kts | 274° |
| 2026-05-05 06:47 | 39.59329 | 1.46014 | 27938 ft | 373 kts | 274° |
| 2026-05-05 06:48 | 39.59743 | 1.42689 | 28323 ft | 374 kts | 274° |
| 2026-05-05 06:48 | 39.60144 | 1.39342 | 28706 ft | 374 kts | 272° |
| 2026-05-05 06:48 | 39.60213 | 1.35982 | 29076 ft | 371 kts | 263° |
| 2026-05-05 06:48 | 39.60022 | 1.32631 | 29429 ft | 373 kts | 263° |
| 2026-05-05 06:49 | 39.59830 | 1.29270 | 29784 ft | 374 kts | 263° |
| 2026-05-05 06:49 | 39.59637 | 1.25901 | 30100 ft | 375 kts | 263° |
| 2026-05-05 06:49 | 39.59443 | 1.22514 | 30380 ft | 377 kts | 263° |
| 2026-05-05 06:49 | 39.59256 | 1.19158 | 30652 ft | 378 kts | 263° |
| 2026-05-05 06:50 | 39.59068 | 1.15749 | 30875 ft | 379 kts | 263° |
| 2026-05-05 06:50 | 39.58679 | 1.08837 | 30943 ft | 391 kts | 263° |
| 2026-05-05 06:51 | 39.58261 | 1.01697 | 30950 ft | 400 kts | 263° |
| 2026-05-05 06:51 | 39.57840 | 0.94497 | 30946 ft | 401 kts | 263° |
| 2026-05-05 06:52 | 39.57415 | 0.87293 | 30949 ft | 401 kts | 263° |
| 2026-05-05 06:52 | 39.56990 | 0.80134 | 30948 ft | 401 kts | 263° |
| 2026-05-05 06:53 | 39.56560 | 0.72937 | 30948 ft | 400 kts | 263° |
| 2026-05-05 06:53 | 39.56113 | 0.65752 | 30948 ft | 400 kts | 263° |
| 2026-05-05 06:54 | 39.55668 | 0.58567 | 30950 ft | 400 kts | 263° |
| 2026-05-05 06:54 | 39.55229 | 0.51374 | 30954 ft | 400 kts | 263° |
| 2026-05-05 06:55 | 39.54782 | 0.44179 | 30956 ft | 400 kts | 263° |
| 2026-05-05 06:55 | 39.54323 | 0.37006 | 30956 ft | 400 kts | 262° |
| 2026-05-05 06:56 | 39.53866 | 0.29876 | 30962 ft | 399 kts | 263° |
| 2026-05-05 06:56 | 39.53403 | 0.22709 | 30964 ft | 399 kts | 262° |
| 2026-05-05 06:57 | 39.52936 | 0.15549 | 30970 ft | 399 kts | 262° |
| 2026-05-05 06:57 | 39.52464 | 0.08381 | 30966 ft | 398 kts | 262° |
| 2026-05-05 06:58 | 39.51988 | 0.01222 | 30971 ft | 398 kts | 262° |
| 2026-05-05 06:58 | 39.51503 | -0.05921 | 30971 ft | 398 kts | 262° |
| 2026-05-05 06:59 | 39.51022 | -0.13052 | 30973 ft | 397 kts | 262° |
| 2026-05-05 06:59 | 39.50542 | -0.20157 | 30976 ft | 397 kts | 262° |
| 2026-05-05 07:00 | 39.50051 | -0.27286 | 30979 ft | 397 kts | 262° |
| 2026-05-05 07:00 | 39.49549 | -0.34400 | 30980 ft | 397 kts | 262° |
| 2026-05-05 07:01 | 39.49042 | -0.41510 | 30980 ft | 396 kts | 262° |
| 2026-05-05 07:01 | 39.49372 | -0.48660 | 30979 ft | 405 kts | 279° |
| 2026-05-05 07:02 | 39.51717 | -0.55431 | 30982 ft | 418 kts | 292° |
| 2026-05-05 07:02 | 39.54617 | -0.61965 | 30978 ft | 418 kts | 292° |
| 2026-05-05 07:03 | 39.57508 | -0.68500 | 30984 ft | 418 kts | 292° |
| 2026-05-05 07:03 | 39.60371 | -0.75006 | 31001 ft | 418 kts | 292° |
| 2026-05-05 07:04 | 39.63243 | -0.81557 | 30998 ft | 418 kts | 292° |
| 2026-05-05 07:04 | 39.66115 | -0.88108 | 31013 ft | 417 kts | 292° |
| 2026-05-05 07:05 | 39.68986 | -0.94658 | 31017 ft | 417 kts | 292° |
| 2026-05-05 07:05 | 39.71843 | -1.01203 | 31015 ft | 417 kts | 292° |
| 2026-05-05 07:06 | 39.74695 | -1.07773 | 31013 ft | 417 kts | 292° |
| 2026-05-05 07:06 | 39.77529 | -1.14288 | 31002 ft | 417 kts | 292° |
| 2026-05-05 07:07 | 39.80392 | -1.20842 | 31007 ft | 417 kts | 292° |
| 2026-05-05 07:07 | 39.83250 | -1.27411 | 31001 ft | 417 kts | 292° |
| 2026-05-05 07:08 | 39.86092 | -1.33983 | 31002 ft | 417 kts | 292° |
| 2026-05-05 07:08 | 39.88926 | -1.40564 | 30870 ft | 411 kts | 292° |
| 2026-05-05 07:08 | 39.90308 | -1.43755 | 30627 ft | 398 kts | 292° |
| 2026-05-05 07:09 | 39.91650 | -1.46841 | 30401 ft | 384 kts | 291° |
| 2026-05-05 07:09 | 39.92948 | -1.49834 | 30063 ft | 375 kts | 291° |
| 2026-05-05 07:09 | 39.94216 | -1.52783 | 29406 ft | 372 kts | 291° |
| 2026-05-05 07:09 | 39.95474 | -1.55732 | 28774 ft | 370 kts | 291° |
| 2026-05-05 07:10 | 39.96716 | -1.58642 | 28311 ft | 364 kts | 291° |
| 2026-05-05 07:10 | 39.97938 | -1.61498 | 27827 ft | 358 kts | 291° |
| 2026-05-05 07:10 | 39.99145 | -1.64313 | 27376 ft | 353 kts | 291° |
| 2026-05-05 07:10 | 40.00318 | -1.67054 | 26931 ft | 348 kts | 291° |
| 2026-05-05 07:11 | 40.01492 | -1.69798 | 26502 ft | 343 kts | 290° |
| 2026-05-05 07:11 | 40.02646 | -1.72503 | 26064 ft | 339 kts | 290° |
| 2026-05-05 07:11 | 40.03784 | -1.75176 | 25610 ft | 335 kts | 290° |
| 2026-05-05 07:11 | 40.04911 | -1.77821 | 25174 ft | 332 kts | 290° |
| 2026-05-05 07:12 | 40.06030 | -1.80445 | 24725 ft | 329 kts | 290° |
| 2026-05-05 07:12 | 40.07138 | -1.83049 | 24259 ft | 327 kts | 290° |
| 2026-05-05 07:12 | 40.08237 | -1.85637 | 23808 ft | 325 kts | 290° |
| 2026-05-05 07:12 | 40.09331 | -1.88219 | 23291 ft | 324 kts | 290° |
| 2026-05-05 07:13 | 40.10417 | -1.90782 | 22812 ft | 321 kts | 290° |
| 2026-05-05 07:13 | 40.11482 | -1.93294 | 22362 ft | 319 kts | 290° |
| 2026-05-05 07:13 | 40.12553 | -1.95824 | 21906 ft | 317 kts | 291° |
| 2026-05-05 07:13 | 40.13618 | -1.98339 | 21459 ft | 315 kts | 291° |
| 2026-05-05 07:14 | 40.14679 | -2.00845 | 21006 ft | 314 kts | 291° |
| 2026-05-05 07:14 | 40.15737 | -2.03334 | 20650 ft | 312 kts | 291° |
| 2026-05-05 07:14 | 40.16789 | -2.05810 | 20314 ft | 311 kts | 291° |
| 2026-05-05 07:14 | 40.17833 | -2.08276 | 19962 ft | 309 kts | 291° |
| 2026-05-05 07:15 | 40.18877 | -2.10745 | 19620 ft | 309 kts | 291° |
| 2026-05-05 07:15 | 40.19914 | -2.13198 | 19286 ft | 308 kts | 291° |
| 2026-05-05 07:15 | 40.20945 | -2.15646 | 18938 ft | 307 kts | 292° |
| 2026-05-05 07:15 | 40.21975 | -2.18096 | 18602 ft | 307 kts | 292° |
| 2026-05-05 07:16 | 40.22998 | -2.20534 | 18253 ft | 305 kts | 292° |
| 2026-05-05 07:16 | 40.24017 | -2.22965 | 17886 ft | 305 kts | 292° |
| 2026-05-05 07:16 | 40.25037 | -2.25393 | 17538 ft | 304 kts | 292° |
| 2026-05-05 07:16 | 40.25869 | -2.27896 | 17197 ft | 297 kts | 281° |
| 2026-05-05 07:17 | 40.26214 | -2.30523 | 16881 ft | 291 kts | 269° |
| 2026-05-05 07:17 | 40.26206 | -2.33163 | 16558 ft | 290 kts | 266° |
| 2026-05-05 07:17 | 40.26187 | -2.35799 | 16233 ft | 290 kts | 267° |
| 2026-05-05 07:17 | 40.26171 | -2.38406 | 15914 ft | 289 kts | 267° |
| 2026-05-05 07:18 | 40.26159 | -2.41040 | 15593 ft | 289 kts | 267° |
| 2026-05-05 07:18 | 40.26148 | -2.43670 | 15273 ft | 289 kts | 268° |
| 2026-05-05 07:18 | 40.26137 | -2.46296 | 14950 ft | 288 kts | 268° |
| 2026-05-05 07:18 | 40.26125 | -2.48919 | 14632 ft | 288 kts | 268° |
| 2026-05-05 07:19 | 40.26109 | -2.51539 | 14348 ft | 286 kts | 268° |
| 2026-05-05 07:19 | 40.26092 | -2.54100 | 14235 ft | 277 kts | 268° |
| 2026-05-05 07:19 | 40.26076 | -2.56587 | 14105 ft | 269 kts | 268° |
| 2026-05-05 07:19 | 40.26064 | -2.58190 | 14027 ft | 263 kts | 268° |
| 2026-05-05 07:20 | 40.26043 | -2.61330 | 13865 ft | 253 kts | 268° |
| 2026-05-05 07:20 | 40.26038 | -2.62848 | 13772 ft | 249 kts | 268° |
| 2026-05-05 07:20 | 40.26035 | -2.65111 | 13467 ft | 249 kts | 268° |
| 2026-05-05 07:20 | 40.26033 | -2.68104 | 13112 ft | 246 kts | 268° |
| 2026-05-05 07:21 | 40.26029 | -2.70335 | 12876 ft | 244 kts | 268° |
| 2026-05-05 07:21 | 40.26025 | -2.71838 | 12713 ft | 244 kts | 268° |
| 2026-05-05 07:21 | 40.26017 | -2.74024 | 12477 ft | 243 kts | 268° |
| 2026-05-05 07:21 | 40.26009 | -2.76239 | 12241 ft | 243 kts | 268° |
| 2026-05-05 07:22 | 40.25999 | -2.78448 | 12008 ft | 243 kts | 268° |
| 2026-05-05 07:22 | 40.25989 | -2.80665 | 11769 ft | 244 kts | 269° |
| 2026-05-05 07:22 | 40.25980 | -2.82880 | 11533 ft | 243 kts | 269° |
| 2026-05-05 07:22 | 40.25970 | -2.85090 | 11296 ft | 242 kts | 269° |
| 2026-05-05 07:23 | 40.25960 | -2.87295 | 11060 ft | 242 kts | 269° |
| 2026-05-05 07:23 | 40.25951 | -2.89504 | 10824 ft | 242 kts | 269° |
| 2026-05-05 07:23 | 40.25941 | -2.91712 | 10596 ft | 242 kts | 269° |
| 2026-05-05 07:23 | 40.25929 | -2.93918 | 10350 ft | 243 kts | 269° |
| 2026-05-05 07:24 | 40.25917 | -2.96125 | 10108 ft | 242 kts | 269° |
| 2026-05-05 07:24 | 40.25908 | -2.98333 | 9877 ft | 242 kts | 269° |
| 2026-05-05 07:24 | 40.25898 | -3.00539 | 9626 ft | 242 kts | 269° |
| 2026-05-05 07:24 | 40.25887 | -3.02742 | 9386 ft | 241 kts | 269° |
| 2026-05-05 07:25 | 40.25874 | -3.04905 | 9165 ft | 241 kts | 269° |
| 2026-05-05 07:25 | 40.25857 | -3.07093 | 8916 ft | 240 kts | 269° |
| 2026-05-05 07:25 | 40.25840 | -3.09277 | 8687 ft | 239 kts | 269° |
| 2026-05-05 07:25 | 40.25828 | -3.11452 | 8453 ft | 238 kts | 269° |
| 2026-05-05 07:26 | 40.25837 | -3.13616 | 8221 ft | 238 kts | 275° |
| 2026-05-05 07:26 | 40.26100 | -3.15753 | 7992 ft | 237 kts | 279° |
| 2026-05-05 07:26 | 40.26385 | -3.17880 | 7761 ft | 237 kts | 279° |
| 2026-05-05 07:26 | 40.26668 | -3.20003 | 7536 ft | 237 kts | 279° |
| 2026-05-05 07:27 | 40.26949 | -3.22122 | 7299 ft | 236 kts | 279° |
| 2026-05-05 07:27 | 40.27228 | -3.24240 | 7069 ft | 235 kts | 278° |
| 2026-05-05 07:27 | 40.27502 | -3.26323 | 6846 ft | 235 kts | 279° |
| 2026-05-05 07:27 | 40.27779 | -3.28429 | 6618 ft | 234 kts | 279° |
| 2026-05-05 07:28 | 40.28054 | -3.30530 | 6389 ft | 234 kts | 279° |
| 2026-05-05 07:28 | 40.28357 | -3.32617 | 6148 ft | 232 kts | 285° |
| 2026-05-05 07:28 | 40.28907 | -3.34577 | 5922 ft | 227 kts | 290° |
| 2026-05-05 07:28 | 40.29469 | -3.36500 | 5704 ft | 225 kts | 290° |
| 2026-05-05 07:29 | 40.30042 | -3.38396 | 5481 ft | 223 kts | 296° |
| 2026-05-05 07:29 | 40.31022 | -3.39939 | 5270 ft | 222 kts | 320° |
| 2026-05-05 07:29 | 40.32241 | -3.41168 | 5045 ft | 220 kts | 322° |
| 2026-05-05 07:29 | 40.33448 | -3.42377 | 4837 ft | 218 kts | 321° |
| 2026-05-05 07:30 | 40.34629 | -3.43567 | 4609 ft | 208 kts | 321° |
| 2026-05-05 07:30 | 40.36776 | -3.45735 | 4316 ft | 178 kts | 321° |
| 2026-05-05 07:30 | 40.37716 | -3.46686 | 4116 ft | 168 kts | 321° |
| 2026-05-05 07:31 | 40.38629 | -3.47609 | 3912 ft | 159 kts | 321° |
| 2026-05-05 07:31 | 40.39478 | -3.48469 | 3694 ft | 154 kts | 321° |
| 2026-05-05 07:31 | 40.40319 | -3.49319 | 3502 ft | 151 kts | 321° |
| 2026-05-05 07:31 | 40.41147 | -3.50157 | 3288 ft | 150 kts | 321° |
| 2026-05-05 07:32 | 40.41970 | -3.50992 | 3070 ft | 150 kts | 321° |
| 2026-05-05 07:32 | 40.42794 | -3.51833 | 2866 ft | 150 kts | 321° |
| 2026-05-05 07:32 | 40.43625 | -3.52678 | 2640 ft | 151 kts | 322° |
| 2026-05-05 07:32 | 40.44464 | -3.53530 | 2424 ft | 153 kts | 322° |
| 2026-05-05 07:33 | 40.45302 | -3.54396 | 2193 ft | 154 kts | 323° |
| 2026-05-05 07:33 | 40.46159 | -3.55240 | 2032 ft | 154 kts | 323° |
| 2026-05-05 07:33 | 40.46991 | -3.56077 | 1976 ft | 140 kts | 323° |
| 2026-05-05 07:33 | 40.47665 | -3.56763 | 1996 ft | 109 kts | 322° |
| 2026-05-05 07:34 | 40.48149 | -3.57259 | 2003 ft | 56 kts | 322° |
| 2026-05-05 07:34 | 40.48402 | -3.57515 | 1997 ft | 30 kts | 322° |
| 2026-05-05 07:34 | 40.48475 | -3.57715 | 1994 ft | 16 kts | 289° |
| 2026-05-05 07:34 | 40.48486 | -3.57789 | 1993 ft | 13 kts | 272° |
| 2026-05-05 07:35 | 40.48439 | -3.57889 | 1992 ft | 13 kts | 262° |
| 2026-05-05 07:35 | 40.48504 | -3.57980 | 1999 ft | 15 kts | 310° |
| 2026-05-05 07:35 | 40.48512 | -3.58159 | 2007 ft | 23 kts | 270° |
| 2026-05-05 07:35 | 40.48511 | -3.58363 | 2014 ft | 21 kts | 270° |
| 2026-05-05 07:36 | 40.48510 | -3.58548 | 2019 ft | 19 kts | 269° |
| 2026-05-05 07:36 | 40.48586 | -3.58631 | 2026 ft | 15 kts | 3° |
| 2026-05-05 07:36 | 40.48690 | -3.58629 | 2022 ft | 14 kts | 360° |
| 2026-05-05 07:36 | 40.48791 | -3.58631 | 2022 ft | 17 kts | 359° |
| 2026-05-05 07:37 | 40.48932 | -3.58632 | 2026 ft | 23 kts | 359° |
| 2026-05-05 07:37 | 40.49096 | -3.58633 | 2026 ft | 24 kts | 359° |
| 2026-05-05 07:37 | 40.49269 | -3.58634 | 2022 ft | 23 kts | 359° |
| 2026-05-05 07:37 | 40.49347 | -3.58675 | 2022 ft | 10 kts | 269° |
| 2026-05-05 07:38 | 40.49346 | -3.58726 | 2022 ft | 1 kts | 271° |
| 2026-05-05 07:38 | 40.49346 | -3.58727 | 2022 ft | 0 kts | 271° |